KRHI

Rhinelander-Oneida County Airport

Rhinelander, Wisconsin, USA
METAR KRHI 232253Z AUTO 35006KT 10SM BKN013 OVC032 M07/M09 A3001 RMK AO2 SLP190 T10671089
Observed Flight Rules
Jan-23 @ 22:53 UTC (38 minutes ago) Marginal Visual Flight Rules
Wind Visibility Clouds
350° at 6 knots 10 miles
  • Broken at 1,300' AGL
  • Overcast at 3,200' AGL
Temperatures Readings
Current -7°C / 19°F
Dewpoint -9°C / 16°F
Humidity 86%
Altimeter 30.01" Hg
Pressure 1019 hPa
Elevation 485
METAR KRHI 232253Z AUTO 35006KT 10SM BKN013 OVC032 M07/M09 A3001 RMK AO2 SLP190 T10671089
Observed Flight Rules
Jan-23 @ 22:53 UTC
(38 minutes ago)
MVFR
Wind Visibility
350° at 6 knots 10 miles
Clouds
  • Broken at 1,300' AGL
  • Overcast at 3,200' AGL
Temperature Dewpoint
-7°C / 19°F -9°C / 16°F
Humidity Altimeter Pressure
86% 30.01" Hg 1019 hPa